createdAt,value
2022-07-29T00:02:47.624Z,97494.94
2022-07-29T00:07:51.331Z,97485.53
2022-07-29T00:12:54.845Z,97488.53
2022-07-29T00:18:00.826Z,97482.16
2022-07-29T00:23:05.359Z,97463.88
2022-07-29T00:28:08.864Z,97468.72
2022-07-29T00:33:13.852Z,97484.63
2022-07-29T00:38:18.690Z,97483.03
2022-07-29T00:43:22.330Z,97488.78
2022-07-29T00:48:27.202Z,97488.19
2022-07-29T00:53:32.197Z,97470.53
2022-07-29T00:58:35.732Z,97467.22
2022-07-29T01:03:40.681Z,97463.38
2022-07-29T01:08:44.852Z,97455.22
2022-07-29T01:13:49.767Z,97441.44
2022-07-29T01:19:02.764Z,97445.06
2022-07-29T01:24:22.075Z,97436.28
2022-07-29T01:29:38.973Z,97434.13
2022-07-29T01:34:55.466Z,97418.00
2022-07-29T01:40:02.227Z,97412.56
2022-07-29T01:45:13.067Z,97412.44
2022-07-29T01:50:19.849Z,97416.13
2022-07-29T01:55:27.385Z,97423.81
2022-07-29T02:00:34.246Z,97411.81
2022-07-29T02:05:40.001Z,97407.69
2022-07-29T02:10:44.997Z,97412.47
2022-07-29T02:15:53.360Z,97418.81
2022-07-29T02:20:58.702Z,97410.00
2022-07-29T02:26:02.599Z,97407.38
2022-07-29T02:31:09.379Z,97403.78
2022-07-29T02:36:13.657Z,97404.22
2022-07-29T02:41:21.932Z,97392.47
2022-07-29T02:46:31.589Z,97391.03
2022-07-29T02:51:44.982Z,97400.66
2022-07-29T02:56:50.240Z,97391.59
2022-07-29T03:01:57.907Z,97394.13
2022-07-29T03:07:03.065Z,97386.00
2022-07-29T03:12:08.197Z,97392.59
2022-07-29T03:17:13.837Z,97391.84
2022-07-29T03:22:17.665Z,97395.53
2022-07-29T03:27:23.258Z,97398.06
2022-07-29T03:32:28.235Z,97398.75
2022-07-29T03:37:32.226Z,97391.69
2022-07-29T03:42:38.849Z,97381.50
2022-07-29T03:47:53.732Z,97383.03
2022-07-29T03:52:59.789Z,97384.84
2022-07-29T03:58:04.305Z,97384.97
2022-07-29T04:03:11.671Z,97386.53
2022-07-29T04:08:15.429Z,97388.06
2022-07-29T04:13:19.184Z,97386.63
2022-07-29T04:18:24.618Z,97381.69
2022-07-29T04:23:28.297Z,97380.75
2022-07-29T04:28:31.884Z,97380.59
2022-07-29T04:33:36.935Z,97376.19
2022-07-29T04:38:41.167Z,97385.38
2022-07-29T04:43:44.827Z,97391.22
2022-07-29T04:48:50.784Z,97388.38
2022-07-29T04:53:54.472Z,97392.69
2022-07-29T04:58:58.149Z,97385.78
2022-07-29T05:04:03.174Z,97394.78
2022-07-29T05:09:07.107Z,97394.78
2022-07-29T05:14:10.833Z,97391.69
2022-07-29T05:19:16.005Z,97397.34
2022-07-29T05:24:20.109Z,97390.19
2022-07-29T05:29:44.730Z,97392.78
2022-07-29T05:34:51.202Z,97383.53
2022-07-29T05:39:57.217Z,97389.03
2022-07-29T05:45:03.115Z,97390.44
2022-07-29T05:50:09.555Z,97389.38
2022-07-29T05:55:13.418Z,97398.03
2022-07-29T06:00:17.977Z,97400.06
2022-07-29T06:05:23.516Z,97399.56
2022-07-29T06:10:28.046Z,97396.44
2022-07-29T06:15:31.788Z,97391.25
2022-07-29T06:20:37.511Z,97392.88
2022-07-29T06:25:42.253Z,97387.28
2022-07-29T06:30:45.775Z,97372.44
2022-07-29T06:35:53.545Z,97373.44
2022-07-29T06:41:06.299Z,97381.22
2022-07-29T06:46:11.926Z,97371.50
2022-07-29T06:51:22.165Z,97363.88
2022-07-29T06:56:27.915Z,97361.94
2022-07-29T07:01:32.079Z,97361.06
2022-07-29T07:06:37.224Z,97371.41
2022-07-29T07:11:40.872Z,97362.59
2022-07-29T07:16:44.866Z,97364.13
2022-07-29T07:21:50.020Z,97369.03
2022-07-29T07:26:54.438Z,97366.94
2022-07-29T07:32:01.156Z,97368.88
2022-07-29T07:37:07.301Z,97365.41
2022-07-29T07:42:13.862Z,97362.25
2022-07-29T07:47:20.903Z,97363.53
2022-07-29T07:52:27.866Z,97352.34
2022-07-29T07:57:31.609Z,97349.06
2022-07-29T08:02:35.319Z,97353.91
2022-07-29T08:07:41.003Z,97355.03
2022-07-29T08:12:44.850Z,97350.25
2022-07-29T08:17:48.475Z,97354.69
2022-07-29T08:22:54.529Z,97346.72
2022-07-29T08:27:57.970Z,97354.81
2022-07-29T08:33:01.603Z,97346.91
2022-07-29T08:38:06.858Z,97346.66
2022-07-29T08:43:11.260Z,97349.59
2022-07-29T08:48:15.249Z,97349.84
2022-07-29T08:53:21.084Z,97347.81
2022-07-29T08:58:25.895Z,97339.13
2022-07-29T09:03:34.559Z,97332.66
2022-07-29T09:08:39.945Z,97332.78
2022-07-29T09:13:43.517Z,97336.81
2022-07-29T09:18:48.495Z,97335.91
2022-07-29T09:24:05.214Z,97325.53
2022-07-29T09:29:13.725Z,97329.91
2022-07-29T09:34:19.144Z,97320.22
2022-07-29T09:39:32.089Z,97326.19
2022-07-29T09:44:49.080Z,97320.22
2022-07-29T09:49:55.319Z,97309.47
2022-07-29T09:55:09.575Z,97305.78
2022-07-29T10:00:15.752Z,97309.59
2022-07-29T10:05:22.298Z,97280.97
2022-07-29T10:10:29.004Z,97275.69
2022-07-29T10:15:38.323Z,97281.41
2022-07-29T10:20:42.346Z,97286.03
2022-07-29T10:25:47.747Z,97272.47
2022-07-29T10:30:54.044Z,97285.28
2022-07-29T10:36:09.576Z,97271.56
2022-07-29T10:41:32.269Z,97272.44
2022-07-29T10:46:42.580Z,97265.56
2022-07-29T10:52:00.015Z,97258.78
2022-07-29T10:57:15.648Z,97268.56
2022-07-29T11:02:56.241Z,97264.66
2022-07-29T11:08:26.421Z,97259.69
2022-07-29T11:13:56.013Z,97267.03
2022-07-29T11:19:26.649Z,97275.28
2022-07-29T11:24:35.578Z,97275.50
2022-07-29T11:29:49.853Z,97286.34
2022-07-29T11:35:19.176Z,97274.22
2022-07-29T11:40:26.737Z,97275.75
2022-07-29T11:45:49.235Z,97271.66
2022-07-29T11:50:54.297Z,97270.19
2022-07-29T11:55:58.799Z,97268.41
2022-07-29T12:01:05.475Z,97255.13
2022-07-29T12:07:03.279Z,97243.81
2022-07-29T12:11:39.652Z,97243.34
2022-07-29T12:16:45.136Z,97234.63
2022-07-29T12:21:53.963Z,97231.22
2022-07-29T12:27:02.702Z,97231.50
2022-07-29T12:32:14.506Z,97222.31
2022-07-29T12:37:40.666Z,97218.91
2022-07-29T12:43:07.975Z,97213.84
2022-07-29T12:48:13.831Z,97223.50
2022-07-29T12:53:17.910Z,97218.88
2022-07-29T12:58:29.814Z,97218.28
2022-07-29T13:03:57.672Z,97200.91
2022-07-29T13:09:09.444Z,97212.03
2022-07-29T13:14:15.491Z,97195.19
2022-07-29T13:19:20.515Z,97194.22
2022-07-29T13:24:24.202Z,97191.81
2022-07-29T13:29:31.475Z,97192.53
2022-07-29T13:34:36.832Z,97184.97
2022-07-29T13:39:41.034Z,97178.53
2022-07-29T13:44:44.939Z,97177.84
2022-07-29T13:49:50.190Z,97161.16
2022-07-29T13:54:54.011Z,97152.13
2022-07-29T13:59:58.291Z,97142.00
2022-07-29T14:05:08.017Z,97147.56
2022-07-29T14:10:12.075Z,97150.53
2022-07-29T14:15:16.021Z,97145.13
2022-07-29T14:20:21.371Z,97157.84
2022-07-29T14:25:25.251Z,97155.19
2022-07-29T14:30:28.940Z,97148.69
2022-07-29T14:35:33.991Z,97152.28
2022-07-29T14:40:37.678Z,97159.59
2022-07-29T14:45:41.517Z,97158.88
2022-07-29T14:50:46.843Z,97169.38
2022-07-29T14:55:51.089Z,97163.72
2022-07-29T15:00:55.759Z,97158.53
2022-07-29T15:06:00.930Z,97167.69
2022-07-29T15:11:04.414Z,97171.31
2022-07-29T15:16:08.360Z,97164.47
2022-07-29T15:21:13.432Z,97166.34
2022-07-29T15:26:17.071Z,97176.97
2022-07-29T15:31:20.896Z,97181.19
2022-07-29T15:36:50.661Z,97184.94
2022-07-29T15:41:49.822Z,97187.72
2022-07-29T15:47:06.250Z,97203.88
2022-07-29T15:52:12.091Z,97207.66
2022-07-29T15:57:16.140Z,97192.13
2022-07-29T16:02:19.897Z,97196.63
2022-07-29T16:07:25.464Z,97192.56
2022-07-29T16:12:35.164Z,97197.22
2022-07-29T16:17:39.174Z,97194.94
2022-07-29T16:22:44.659Z,97187.84
2022-07-29T16:27:48.492Z,97190.97
2022-07-29T16:32:52.328Z,97194.84
2022-07-29T16:37:57.395Z,97193.66
2022-07-29T16:43:01.114Z,97202.50
2022-07-29T16:48:05.490Z,97203.19
2022-07-29T16:53:11.831Z,97202.22
2022-07-29T16:58:15.642Z,97195.53
2022-07-29T17:03:19.568Z,97193.06
2022-07-29T17:08:24.909Z,97198.94
2022-07-29T17:13:28.529Z,97200.81
2022-07-29T17:18:32.229Z,97203.75
2022-07-29T17:23:37.965Z,97198.97
2022-07-29T17:28:41.566Z,97202.31
2022-07-29T17:33:45.682Z,97195.69
2022-07-29T17:38:51.317Z,97193.81
2022-07-29T17:43:55.422Z,97201.09
2022-07-29T17:48:59.181Z,97203.16
2022-07-29T17:54:04.371Z,97219.53
2022-07-29T17:59:10.170Z,97241.06
2022-07-29T18:04:15.281Z,97252.19
2022-07-29T18:09:20.450Z,97274.53
2022-07-29T18:14:24.188Z,97275.44
2022-07-29T18:19:28.730Z,97293.16
2022-07-29T18:24:33.863Z,97289.34
2022-07-29T18:29:37.636Z,97304.63
2022-07-29T18:34:41.204Z,97306.84
2022-07-29T18:39:46.564Z,97309.59
2022-07-29T18:44:50.098Z,97315.72
2022-07-29T18:49:53.547Z,97306.66
2022-07-29T18:54:58.672Z,97313.50
2022-07-29T19:00:02.298Z,97304.81
2022-07-29T19:05:07.248Z,97310.81
2022-07-29T19:10:13.987Z,97313.59
2022-07-29T19:15:20.506Z,97313.59
2022-07-29T19:20:24.865Z,97315.88
2022-07-29T19:25:30.078Z,97326.50
2022-07-29T19:30:33.827Z,97325.78
2022-07-29T19:35:37.691Z,97317.78
2022-07-29T19:40:42.839Z,97319.13
2022-07-29T19:45:46.793Z,97322.31
2022-07-29T19:50:50.364Z,97329.38
2022-07-29T19:55:55.369Z,97330.78
2022-07-29T20:00:58.976Z,97336.97
2022-07-29T20:06:02.541Z,97338.13
2022-07-29T20:11:07.909Z,97347.13
2022-07-29T20:16:12.170Z,97361.81
2022-07-29T20:21:16.437Z,97367.81
2022-07-29T20:26:21.510Z,97382.16
2022-07-29T20:31:25.901Z,97383.94
2022-07-29T20:36:30.072Z,97381.22
2022-07-29T20:41:35.291Z,97393.47
2022-07-29T20:46:40.336Z,97388.22
2022-07-29T20:51:45.774Z,97394.97
2022-07-29T20:56:50.985Z,97390.88
2022-07-29T21:01:55.852Z,97397.06
2022-07-29T21:06:59.520Z,97400.47
2022-07-29T21:12:05.753Z,97401.66
2022-07-29T21:17:10.467Z,97406.13
2022-07-29T21:22:14.072Z,97403.69
2022-07-29T21:27:38.459Z,97397.03
2022-07-29T21:32:42.412Z,97393.03
2022-07-29T21:37:46.168Z,97387.47
2022-07-29T21:42:51.401Z,97379.00
2022-07-29T21:47:55.265Z,97376.50
2022-07-29T21:52:58.931Z,97362.75
2022-07-29T21:58:04.445Z,97363.25
2022-07-29T22:03:09.008Z,97356.56
2022-07-29T22:08:13.523Z,97347.72
2022-07-29T22:13:18.437Z,97343.53
2022-07-29T22:18:22.000Z,97336.66
2022-07-29T22:23:25.601Z,97332.72
2022-07-29T22:28:31.805Z,97318.69
2022-07-29T22:33:35.545Z,97323.31
2022-07-29T22:38:39.040Z,97317.44
2022-07-29T22:43:44.074Z,97310.84
2022-07-29T22:48:47.729Z,97315.84
2022-07-29T22:53:51.324Z,97314.31
2022-07-29T22:58:56.618Z,97303.47
2022-07-29T23:04:00.245Z,97302.16
2022-07-29T23:09:04.361Z,97302.44
2022-07-29T23:14:09.571Z,97298.78
2022-07-29T23:19:13.156Z,97315.84
2022-07-29T23:24:16.813Z,97323.88
2022-07-29T23:29:21.772Z,97321.38
2022-07-29T23:34:25.487Z,97330.25
2022-07-29T23:39:29.368Z,97347.56
2022-07-29T23:44:34.429Z,97354.63
2022-07-29T23:49:38.032Z,97370.69
2022-07-29T23:54:41.694Z,97366.28
2022-07-29T23:59:46.588Z,97360.66
